Terminal Aerodrome Forecast
Issued by NWS St Louis, MO

Home | Current Version | Previous Version | Graphics & Text | Print | Product List | Glossary On
Versions: 1 2 3 4 5 6 7 8 9 10 11 12 13 14 15 16 17 18 19 20 21 22 23 24 25 26 27 28 29 30
272
FTUS43 KLSX 282335
TAFCOU
TAF
KCOU 282335Z 2900/2924 07009KT P6SM BKN035
     FM290800 08012KT P6SM OVC015
     FM291000 08013KT P6SM VCSH OVC010
     FM291200 09014G23KT 4SM SHRA OVC008
     FM291800 09014G23KT P6SM OVC008=

USA.gov is the U.S. government's official web portal to all federal, state and local government web resources and services.